Time;durP1;ratioP1;P1;durP2;ratioP2;P2;SDS_P1;SDS_P2;PMS_P1;PMS_P2;Temp;Humidity;BMP_temperature;BMP_pressure;BME280_temperature;BME280_humidity;BME280_pressure;Samples;Min_cycle;Max_cycle;Signal;HPM_P1;HPM_P2
2023/07/04 00:01:46;;;;;;;2.13;1.92;;;23.00;61.30;;;;;;5021596;28;20218;-69
2023/07/04 00:04:15;;;;;;;2.30;2.10;;;23.00;61.30;;;;;;5012714;28;20223;-69
2023/07/04 00:06:41;;;;;;;1.90;1.80;;;23.00;61.30;;;;;;5014141;28;20194;-69
2023/07/04 00:09:07;;;;;;;2.08;1.70;;;22.90;61.20;;;;;;5019350;28;20187;-69
2023/07/04 00:11:34;;;;;;;1.95;1.80;;;23.00;61.40;;;;;;5031249;28;20212;-69
2023/07/04 00:14:00;;;;;;;2.20;2.00;;;22.90;61.30;;;;;;4996570;28;20188;-69
2023/07/04 00:16:26;;;;;;;1.83;1.70;;;22.90;61.30;;;;;;5012606;28;20215;-69
2023/07/04 00:18:51;;;;;;;1.90;1.80;;;22.90;61.30;;;;;;5000742;28;20215;-69
2023/07/04 00:21:18;;;;;;;3.25;2.30;;;22.90;61.40;;;;;;5016738;28;20212;-69
2023/07/04 00:23:48;;;;;;;2.03;1.80;;;22.90;61.40;;;;;;5012555;28;20216;-69
2023/07/04 00:26:17;;;;;;;2.13;1.92;;;22.90;61.50;;;;;;4996750;28;20192;-69
2023/07/04 00:28:44;;;;;;;1.80;1.70;;;22.90;61.50;;;;;;5012581;28;20587;-70
2023/07/04 00:31:14;;;;;;;2.35;2.15;;;22.90;61.50;;;;;;5012680;28;20208;-70
2023/07/04 00:33:40;;;;;;;2.45;1.92;;;22.90;61.60;;;;;;5013551;28;20219;-70
2023/07/04 00:36:09;;;;;;;2.83;1.90;;;22.90;61.60;;;;;;5012664;28;20238;-69
2023/07/04 00:38:39;;;;;;;2.25;1.92;;;22.90;61.60;;;;;;5012616;28;20192;-69
2023/07/04 00:41:15;;;;;;;3.03;2.10;;;22.90;61.60;;;;;;5028503;28;20691;-68
2023/07/04 00:44:19;;;;;;;1.83;1.70;;;22.90;61.60;;;;;;4995880;28;20191;-69
2023/07/04 00:47:15;;;;;;;2.08;1.88;;;22.90;61.60;;;;;;5015459;28;20201;-69
2023/07/04 00:49:44;;;;;;;2.03;1.90;;;22.90;61.60;;;;;;4997008;28;20246;-69
2023/07/04 00:52:17;;;;;;;2.30;2.10;;;22.90;61.60;;;;;;5013531;28;20184;-70
2023/07/04 00:54:52;;;;;;;2.38;1.90;;;22.90;61.70;;;;;;4995423;28;20227;-69
2023/07/04 00:57:25;;;;;;;2.45;2.05;;;22.90;61.70;;;;;;5028794;28;20195;-69
2023/07/04 00:59:58;;;;;;;2.78;2.25;;;22.90;61.70;;;;;;5002090;28;20188;-69
2023/07/04 01:02:33;;;;;;;2.50;1.88;;;22.90;61.70;;;;;;5008731;28;20188;-69
2023/07/04 01:05:03;;;;;;;2.63;1.95;;;22.90;61.70;;;;;;5018699;28;20187;-69
2023/07/04 01:07:51;;;;;;;2.60;1.80;;;22.90;61.70;;;;;;5011635;28;20200;-70
2023/07/04 01:10:32;;;;;;;2.22;1.80;;;22.90;61.70;;;;;;5014273;28;20208;-70
2023/07/04 01:12:58;;;;;;;1.83;1.70;;;22.90;61.70;;;;;;5011427;28;20184;-69
2023/07/04 01:15:25;;;;;;;2.80;2.03;;;22.90;61.70;;;;;;5007263;28;20330;-72
2023/07/04 01:17:52;;;;;;;2.00;1.80;;;22.90;61.70;;;;;;5011633;28;20176;-69
2023/07/04 01:20:19;;;;;;;2.15;1.80;;;22.90;61.80;;;;;;4995601;28;20214;-69
2023/07/04 01:22:57;;;;;;;2.15;1.92;;;22.90;61.80;;;;;;5011952;28;20203;-69
2023/07/04 01:25:53;;;;;;;2.20;2.00;;;22.90;61.80;;;;;;5008095;28;20188;-69
2023/07/04 01:28:20;;;;;;;3.80;2.15;;;22.90;61.80;;;;;;5011520;28;20207;-69
2023/07/04 01:30:47;;;;;;;1.77;1.63;;;22.90;61.80;;;;;;5020017;28;20223;-70
2023/07/04 01:33:14;;;;;;;2.28;2.08;;;22.90;61.80;;;;;;5011619;28;20191;-69
2023/07/04 01:35:41;;;;;;;1.88;1.77;;;22.90;61.80;;;;;;5011349;28;20212;-70
2023/07/04 01:38:07;;;;;;;1.85;1.70;;;22.90;61.80;;;;;;5011527;28;20199;-69
2023/07/04 01:40:34;;;;;;;2.22;2.03;;;22.90;61.80;;;;;;5011302;28;20196;-69
2023/07/04 01:43:02;;;;;;;2.00;1.80;;;22.90;61.80;;;;;;4999933;28;20175;-69
2023/07/04 01:45:29;;;;;;;1.73;1.63;;;22.90;62.60;;;;;;5014579;28;20184;-69
2023/07/04 01:47:54;;;;;;;2.25;2.00;;;22.90;61.80;;;;;;5011816;28;20207;-69
2023/07/04 01:50:21;;;;;;;2.60;1.70;;;22.90;61.90;;;;;;5011346;28;20664;-70
2023/07/04 01:52:47;;;;;;;1.70;1.60;;;22.90;61.90;;;;;;5012292;28;20305;-67
2023/07/04 01:55:15;;;;;;;2.53;2.00;;;22.90;61.90;;;;;;5011373;28;20686;-69
2023/07/04 01:57:41;;;;;;;1.67;1.58;;;22.90;61.90;;;;;;5016696;28;20262;-70
2023/07/04 02:00:10;;;;;;;1.70;1.60;;;22.80;61.80;;;;;;5011139;28;20207;-69
2023/07/04 02:02:54;;;;;;;2.58;2.15;;;22.80;61.80;;;;;;5003563;28;20214;-69
2023/07/04 02:05:20;;;;;;;2.05;1.90;;;22.90;61.90;;;;;;5015565;28;20188;-69
2023/07/04 02:07:47;;;;;;;1.60;1.50;;;22.90;61.90;;;;;;5011248;28;20195;-70
2023/07/04 02:10:13;;;;;;;1.67;1.58;;;22.80;61.80;;;;;;5010965;28;20214;-69
2023/07/04 02:12:39;;;;;;;2.22;2.00;;;22.80;61.80;;;;;;5011127;28;20187;-69
2023/07/04 02:15:07;;;;;;;2.22;2.03;;;22.80;61.90;;;;;;5011034;28;20261;-69
2023/07/04 02:17:33;;;;;;;2.92;1.80;;;22.80;61.80;;;;;;5011010;28;20206;-69
2023/07/04 02:19:59;;;;;;;2.15;1.90;;;22.80;61.80;;;;;;5011184;28;20233;-68
2023/07/04 02:22:25;;;;;;;2.30;2.10;;;22.80;61.90;;;;;;5017176;28;20186;-69
2023/07/04 02:24:50;;;;;;;2.22;1.60;;;22.80;61.80;;;;;;5011098;28;20202;-69
2023/07/04 02:27:16;;;;;;;2.00;1.73;;;22.80;62.70;;;;;;5012356;28;20184;-69
2023/07/04 02:29:49;;;;;;;2.00;1.70;;;22.80;61.90;;;;;;5014931;28;20188;-69
2023/07/04 02:32:15;;;;;;;1.70;1.60;;;22.80;61.90;;;;;;5015242;28;20184;-69
2023/07/04 02:34:41;;;;;;;1.75;1.60;;;22.80;61.90;;;;;;5014634;28;20823;-69
2023/07/04 02:37:10;;;;;;;2.17;1.98;;;22.80;61.90;;;;;;5022865;28;20184;-70
2023/07/04 02:39:36;;;;;;;1.80;1.70;;;22.80;61.90;;;;;;5014650;28;20271;-69
2023/07/04 02:42:02;;;;;;;2.25;2.05;;;22.80;61.90;;;;;;5014894;28;20204;-69
2023/07/04 02:44:28;;;;;;;2.13;1.70;;;22.80;62.00;;;;;;5022720;28;20184;-69
2023/07/04 02:46:54;;;;;;;2.00;1.80;;;22.80;62.00;;;;;;5014455;28;20568;-69
2023/07/04 02:49:20;;;;;;;2.13;1.92;;;22.80;62.00;;;;;;5014530;28;20190;-69
2023/07/04 02:51:46;;;;;;;1.73;1.63;;;22.80;62.00;;;;;;4998045;28;20238;-69
2023/07/04 02:54:12;;;;;;;2.00;1.80;;;22.80;62.00;;;;;;5014369;28;20299;-69
2023/07/04 02:56:38;;;;;;;2.00;1.80;;;22.80;62.00;;;;;;5012764;28;20252;-69
2023/07/04 02:59:04;;;;;;;1.63;1.52;;;22.80;62.00;;;;;;5014395;28;20180;-69
2023/07/04 03:01:30;;;;;;;1.90;1.73;;;22.80;62.10;;;;;;5014611;28;20208;-69
2023/07/04 03:03:56;;;;;;;2.45;1.73;;;22.80;62.10;;;;;;4998061;28;20188;-69
2023/07/04 03:06:23;;;;;;;1.98;1.77;;;22.80;62.10;;;;;;5021512;28;20205;-70
2023/07/04 03:08:50;;;;;;;1.95;1.85;;;22.80;62.10;;;;;;5017589;28;20184;-69
2023/07/04 03:11:18;;;;;;;1.88;1.70;;;22.80;62.10;;;;;;5003316;28;20227;-69
2023/07/04 03:13:44;;;;;;;1.85;1.73;;;22.80;62.20;;;;;;5013789;28;20192;-69
2023/07/04 03:16:10;;;;;;;1.58;1.48;;;22.80;62.20;;;;;;5013950;28;20211;-69
2023/07/04 03:18:35;;;;;;;2.00;1.70;;;22.70;62.20;;;;;;5013769;28;20191;-69
2023/07/04 03:21:02;;;;;;;1.73;1.63;;;22.70;62.20;;;;;;5013932;28;20207;-69
2023/07/04 03:23:28;;;;;;;2.13;1.63;;;22.70;62.20;;;;;;5013753;28;20188;-69
2023/07/04 03:25:53;;;;;;;1.80;1.70;;;22.80;62.30;;;;;;5013804;28;20184;-69
2023/07/04 03:28:19;;;;;;;2.10;1.83;;;22.70;62.30;;;;;;5013764;28;20206;-69
2023/07/04 03:30:46;;;;;;;1.73;1.63;;;22.70;62.20;;;;;;5021755;28;20215;-69
2023/07/04 03:33:13;;;;;;;2.10;1.90;;;22.70;62.20;;;;;;5013634;28;20190;-69
2023/07/04 03:35:40;;;;;;;1.95;1.75;;;22.70;62.30;;;;;;5013752;28;20223;-69
2023/07/04 03:38:06;;;;;;;1.83;1.60;;;22.70;62.30;;;;;;5013181;28;20187;-69
2023/07/04 03:40:32;;;;;;;1.98;1.77;;;22.80;62.40;;;;;;5012811;28;20208;-69
2023/07/04 03:42:58;;;;;;;1.85;1.70;;;22.70;62.30;;;;;;5013757;28;20544;-68
2023/07/04 03:45:23;;;;;;;1.63;1.52;;;22.70;62.30;;;;;;5021750;28;20215;-69
2023/07/04 03:47:49;;;;;;;2.72;1.73;;;22.80;62.50;;;;;;5013623;28;20199;-69
2023/07/04 03:50:15;;;;;;;1.95;1.75;;;22.70;62.50;;;;;;5014470;28;20211;-71
2023/07/04 03:52:44;;;;;;;1.60;1.50;;;22.70;62.50;;;;;;4998533;28;20196;-69
2023/07/04 03:55:10;;;;;;;1.70;1.60;;;22.70;62.50;;;;;;5003803;28;20204;-70
2023/07/04 03:57:36;;;;;;;1.60;1.50;;;22.80;62.60;;;;;;4997279;28;20194;-69
2023/07/04 04:00:05;;;;;;;1.80;1.70;;;22.80;62.60;;;;;;5013483;28;20671;-70
2023/07/04 04:02:51;;;;;;;1.70;1.60;;;22.70;62.50;;;;;;5022355;28;20204;-69
2023/07/04 04:05:17;;;;;;;1.60;1.50;;;22.70;62.50;;;;;;5013177;28;20543;-69
2023/07/04 04:07:42;;;;;;;1.63;1.52;;;22.70;62.50;;;;;;5027463;28;20235;-69
2023/07/04 04:10:09;;;;;;;1.90;1.70;;;22.70;62.60;;;;;;5013082;28;20211;-69
2023/07/04 04:12:35;;;;;;;1.70;1.60;;;22.70;62.60;;;;;;5013174;28;20184;-72
2023/07/04 04:15:03;;;;;;;1.77;1.65;;;22.70;62.60;;;;;;5014055;28;20547;-69
2023/07/04 04:17:28;;;;;;;1.70;1.60;;;22.70;62.60;;;;;;5038061;28;20195;-69
2023/07/04 04:19:54;;;;;;;1.50;1.40;;;22.70;62.60;;;;;;5015442;28;20192;-69
2023/07/04 04:22:20;;;;;;;1.50;1.40;;;22.70;62.60;;;;;;5008160;28;20183;-69
2023/07/04 04:24:46;;;;;;;1.98;1.77;;;22.70;62.60;;;;;;5014404;28;20231;-68
2023/07/04 04:27:13;;;;;;;1.67;1.58;;;22.70;62.70;;;;;;5014190;28;20191;-69
2023/07/04 04:29:39;;;;;;;1.60;1.50;;;22.70;62.70;;;;;;5013596;28;20184;-70
2023/07/04 04:32:05;;;;;;;1.50;1.40;;;22.70;62.70;;;;;;5012731;28;20251;-69
2023/07/04 04:34:30;;;;;;;1.70;1.60;;;22.70;62.70;;;;;;5020050;28;20219;-69
2023/07/04 04:36:56;;;;;;;1.63;1.52;;;22.70;62.80;;;;;;5032592;28;20647;-69
2023/07/04 04:39:22;;;;;;;1.75;1.65;;;22.70;62.80;;;;;;5033544;28;20554;-69
2023/07/04 04:41:52;;;;;;;1.80;1.70;;;22.70;62.80;;;;;;5015381;28;20208;-70
2023/07/04 04:44:18;;;;;;;2.00;1.80;;;22.70;62.80;;;;;;5018195;28;20188;-70
2023/07/04 04:46:48;;;;;;;2.15;1.60;;;22.70;62.80;;;;;;5012425;28;20203;-69
2023/07/04 04:49:17;;;;;;;1.55;1.45;;;22.70;62.80;;;;;;5025638;28;20211;-70
2023/07/04 04:51:44;;;;;;;1.20;1.10;;;22.70;62.90;;;;;;5022743;28;20207;-70
2023/07/04 04:54:14;;;;;;;1.50;1.40;;;22.70;62.90;;;;;;5020279;28;20203;-70
2023/07/04 04:56:40;;;;;;;1.50;1.35;;;22.70;62.90;;;;;;5013114;28;20195;-70
2023/07/04 04:59:07;;;;;;;2.13;1.63;;;22.70;63.00;;;;;;5023874;28;20183;-70
2023/07/04 05:01:36;;;;;;;1.63;1.52;;;22.70;62.90;;;;;;5016046;28;20207;-70
2023/07/04 05:04:02;;;;;;;1.60;1.50;;;22.70;63.00;;;;;;5015095;28;20190;-69
2023/07/04 05:06:28;;;;;;;1.52;1.42;;;22.70;63.00;;;;;;5023843;28;20214;-71
2023/07/04 05:08:54;;;;;;;1.33;1.23;;;22.70;63.00;;;;;;5009924;28;20652;-67
2023/07/04 05:11:20;;;;;;;1.58;1.48;;;22.80;63.10;;;;;;5017498;28;20218;-69
2023/07/04 05:13:46;;;;;;;1.58;1.48;;;22.70;63.00;;;;;;5014833;28;20197;-69
2023/07/04 05:16:17;;;;;;;1.27;1.17;;;22.70;63.10;;;;;;5018816;28;20222;-69
2023/07/04 05:18:43;;;;;;;1.33;1.23;;;22.70;63.10;;;;;;5021701;28;20245;-69
2023/07/04 05:21:17;;;;;;;1.40;1.30;;;22.80;63.20;;;;;;5002797;28;20702;-69
2023/07/04 05:23:46;;;;;;;1.77;1.67;;;22.70;63.10;;;;;;5011788;28;20184;-69
2023/07/04 05:26:25;;;;;;;2.05;1.55;;;22.70;63.10;;;;;;5011698;28;20196;-68
2023/07/04 05:28:54;;;;;;;1.40;1.20;;;22.70;63.20;;;;;;5011895;28;20192;-69
2023/07/04 05:31:24;;;;;;;1.60;1.50;;;22.70;63.20;;;;;;4995205;28;20215;-69
2023/07/04 05:33:52;;;;;;;1.50;1.40;;;22.70;63.20;;;;;;5011029;28;20576;-68
2023/07/04 05:36:22;;;;;;;1.98;1.50;;;22.80;63.20;;;;;;4994955;28;20243;-69
2023/07/04 05:38:51;;;;;;;1.20;1.20;;;22.70;63.20;;;;;;5020602;28;20626;-69
2023/07/04 05:41:21;;;;;;;1.40;1.30;;;22.80;63.30;;;;;;5011075;28;20242;-69
2023/07/04 05:43:47;;;;;;;1.40;1.30;;;22.70;63.20;;;;;;5011112;28;20211;-67
2023/07/04 05:46:15;;;;;;;1.60;1.50;;;22.80;63.40;;;;;;4996719;28;20184;-67
2023/07/04 05:48:42;;;;;;;1.50;1.40;;;22.70;63.40;;;;;;4994922;28;20194;-69
2023/07/04 05:51:14;;;;;;;1.15;1.08;;;22.70;63.30;;;;;;4995193;28;20254;-69
2023/07/04 05:53:45;;;;;;;2.20;1.30;;;22.70;63.30;;;;;;5019181;28;20230;-69
2023/07/04 05:56:14;;;;;;;1.50;1.40;;;22.80;63.40;;;;;;5011047;28;20216;-69
2023/07/04 05:58:44;;;;;;;1.70;1.60;;;22.80;63.50;;;;;;5012544;28;20184;-69
2023/07/04 06:01:14;;;;;;;1.58;1.48;;;22.80;63.60;;;;;;5016106;28;20209;-69
2023/07/04 06:03:41;;;;;;;1.60;1.50;;;22.80;63.50;;;;;;5044003;28;20183;-67
2023/07/04 06:06:27;;;;;;;1.58;1.45;;;22.80;63.50;;;;;;5004840;28;20195;-69
2023/07/04 06:08:55;;;;;;;1.85;1.48;;;22.80;63.50;;;;;;5011036;28;20196;-67
2023/07/04 06:11:26;;;;;;;1.38;1.27;;;22.80;63.50;;;;;;5011192;28;20218;-69
2023/07/04 06:13:53;;;;;;;1.60;1.50;;;22.80;63.50;;;;;;5010871;28;20199;-69
2023/07/04 06:16:20;;;;;;;1.50;1.40;;;22.80;64.40;;;;;;5010981;28;20219;-68
2023/07/04 06:18:47;;;;;;;2.90;1.75;;;22.80;63.70;;;;;;5020086;28;20191;-69
2023/07/04 06:21:23;;;;;;;3.35;1.27;;;22.80;63.70;;;;;;5019072;28;20211;-69
2023/07/04 06:23:51;;;;;;;1.80;1.45;;;22.80;63.80;;;;;;5002610;28;20188;-69
2023/07/04 06:26:17;;;;;;;1.75;1.50;;;22.90;63.90;;;;;;5010776;28;20573;-69
2023/07/04 06:28:43;;;;;;;1.42;1.33;;;22.80;63.80;;;;;;5020058;28;20199;-69
2023/07/04 06:31:15;;;;;;;1.60;1.50;;;22.80;63.90;;;;;;5010939;28;20207;-69
2023/07/04 06:33:41;;;;;;;1.42;1.33;;;22.80;63.70;;;;;;5010731;28;20184;-69
2023/07/04 06:36:09;;;;;;;1.70;1.60;;;22.80;63.80;;;;;;5010635;28;20220;-69
2023/07/04 06:38:35;;;;;;;1.40;1.30;;;22.80;63.80;;;;;;5019211;28;20184;-69
2023/07/04 06:41:08;;;;;;;1.48;1.38;;;22.80;63.80;;;;;;5012696;28;20705;-69
2023/07/04 06:43:34;;;;;;;1.50;1.40;;;22.80;63.90;;;;;;5016527;28;20563;-71
2023/07/04 06:46:01;;;;;;;1.48;1.38;;;22.90;64.00;;;;;;5010960;28;20210;-69
2023/07/04 06:48:28;;;;;;;2.00;1.33;;;22.80;63.80;;;;;;5010598;28;20188;-69
2023/07/04 06:51:02;;;;;;;1.70;1.60;;;22.80;63.90;;;;;;5010715;28;20212;-68
2023/07/04 06:53:30;;;;;;;1.52;1.30;;;22.90;64.00;;;;;;5010597;28;20717;-70
2023/07/04 06:56:18;;;;;;;1.92;1.55;;;22.90;64.00;;;;;;5012064;28;20216;-68
2023/07/04 06:58:55;;;;;;;2.05;1.60;;;22.90;64.00;;;;;;5023246;28;20207;-71
2023/07/04 07:01:26;;;;;;;1.52;1.30;;;22.90;64.00;;;;;;5028644;28;20230;-70
2023/07/04 07:03:52;;;;;;;1.40;1.30;;;22.90;64.00;;;;;;5010409;28;20196;-69
2023/07/04 07:06:19;;;;;;;1.75;1.40;;;22.90;64.00;;;;;;5018609;28;20279;-69
2023/07/04 07:08:44;;;;;;;2.40;1.85;;;22.90;64.00;;;;;;5010285;28;20200;-73
2023/07/04 07:11:14;;;;;;;1.60;1.50;;;22.90;64.00;;;;;;5010458;28;20207;-69
2023/07/04 07:13:41;;;;;;;2.55;1.55;;;22.90;64.00;;;;;;4994392;28;20188;-69
2023/07/04 07:16:14;;;;;;;1.65;1.55;;;22.90;64.00;;;;;;5016823;28;20199;-70
2023/07/04 07:18:43;;;;;;;1.60;1.50;;;22.90;64.00;;;;;;5018254;28;20235;-69
2023/07/04 07:21:11;;;;;;;1.17;1.17;;;22.90;64.00;;;;;;4997765;28;20266;-69
2023/07/04 07:23:39;;;;;;;2.83;1.63;;;22.90;64.00;;;;;;5014996;28;20190;-69
2023/07/04 07:26:10;;;;;;;1.50;1.40;;;22.90;64.00;;;;;;4997524;28;20192;-69
2023/07/04 07:28:41;;;;;;;1.55;1.45;;;22.90;64.00;;;;;;5014302;28;20196;-69
2023/07/04 07:31:09;;;;;;;2.08;1.60;;;22.90;64.00;;;;;;5013715;28;20240;-69
2023/07/04 07:33:39;;;;;;;1.90;1.77;;;22.90;64.00;;;;;;5013742;28;20220;-69
2023/07/04 07:36:25;;;;;;;1.95;1.80;;;22.90;64.00;;;;;;4997295;28;20220;-67
2023/07/04 07:38:54;;;;;;;1.92;1.77;;;22.90;63.80;;;;;;4999996;28;20189;-69
2023/07/04 07:41:25;;;;;;;1.77;1.65;;;22.90;63.70;;;;;;5018924;28;20277;-68
2023/07/04 07:43:51;;;;;;;1.60;1.50;;;22.90;63.70;;;;;;5016126;28;20192;-69
2023/07/04 07:46:18;;;;;;;3.58;1.85;;;22.90;63.60;;;;;;5029858;28;20245;-69
2023/07/04 07:48:45;;;;;;;2.33;1.80;;;22.90;63.80;;;;;;5014634;28;20184;-69
2023/07/04 07:51:12;;;;;;;1.85;1.45;;;22.90;63.70;;;;;;4997179;28;20204;-69
2023/07/04 07:53:42;;;;;;;1.65;1.55;;;22.90;63.80;;;;;;4996770;28;20295;-69
2023/07/04 07:56:10;;;;;;;1.90;1.70;;;22.90;63.50;;;;;;5013134;28;20219;-68
2023/07/04 07:58:36;;;;;;;3.38;2.22;;;23.00;63.80;;;;;;5011349;28;20270;-68
2023/07/04 08:01:22;;;;;;;1.80;1.70;;;22.90;63.60;;;;;;5015735;28;20302;-69
2023/07/04 08:03:49;;;;;;;1.52;1.42;;;22.90;63.70;;;;;;5037458;28;20231;-68
2023/07/04 08:06:29;;;;;;;2.22;1.90;;;22.90;63.60;;;;;;5037928;28;20237;-69
2023/07/04 08:08:58;;;;;;;2.10;1.75;;;22.90;63.70;;;;;;5045910;28;20198;-69
2023/07/04 08:11:26;;;;;;;2.28;1.60;;;22.90;63.60;;;;;;5009645;28;20204;-69
2023/07/04 08:13:53;;;;;;;2.30;1.73;;;23.00;63.60;;;;;;5043197;28;20187;-70
2023/07/04 08:16:40;;;;;;;3.08;2.00;;;23.00;63.60;;;;;;5024479;28;20219;-69
2023/07/04 08:19:06;;;;;;;2.05;1.85;;;23.00;63.40;;;;;;5037684;28;20659;-69
2023/07/04 08:21:32;;;;;;;3.78;1.65;;;23.00;63.50;;;;;;5013237;28;20219;-69
2023/07/04 08:23:58;;;;;;;3.35;2.08;;;23.00;63.50;;;;;;5021992;28;20647;-69
2023/07/04 08:26:26;;;;;;;2.75;1.85;;;23.00;63.50;;;;;;5019561;28;20195;-69
2023/07/04 08:28:54;;;;;;;1.77;1.67;;;23.00;63.50;;;;;;5020738;28;20241;-68
2023/07/04 08:31:20;;;;;;;2.35;1.92;;;23.00;63.40;;;;;;5009262;28;20255;-69
2023/07/04 08:33:47;;;;;;;1.77;1.52;;;23.00;63.50;;;;;;5041725;28;20206;-71
2023/07/04 08:36:15;;;;;;;2.70;2.00;;;23.00;63.40;;;;;;5012274;28;20208;-69
2023/07/04 08:38:41;;;;;;;2.17;2.00;;;23.00;63.50;;;;;;4996258;28;20322;-69
2023/07/04 08:41:47;;;;;;;2.17;1.63;;;23.00;63.50;;;;;;5011950;28;20204;-69
2023/07/04 08:44:21;;;;;;;1.90;1.80;;;23.00;63.40;;;;;;4996021;28;20196;-69
2023/07/04 08:46:53;;;;;;;2.33;1.75;;;23.00;63.40;;;;;;5012163;28;20195;-68
2023/07/04 08:49:28;;;;;;;2.03;1.77;;;23.00;63.40;;;;;;5005821;28;20226;-69
2023/07/04 08:52:02;;;;;;;2.67;2.22;;;23.00;63.30;;;;;;4995993;28;20278;-69
2023/07/04 08:54:29;;;;;;;2.03;1.80;;;23.00;63.40;;;;;;4995473;28;20210;-69
2023/07/04 08:57:08;;;;;;;2.35;2.15;;;23.00;63.30;;;;;;5042085;28;20188;-70
2023/07/04 08:59:42;;;;;;;3.83;2.00;;;23.00;63.30;;;;;;5018195;28;20184;-69
2023/07/04 09:03:05;;;;;;;3.85;2.08;;;23.00;63.30;;;;;;5014377;28;20192;-69
2023/07/04 09:06:23;;;;;;;3.25;2.28;;;23.10;63.40;;;;;;4994355;28;20226;-66
2023/07/04 09:09:07;;;;;;;2.33;1.88;;;23.10;63.30;;;;;;5005345;28;20207;-69
2023/07/04 09:11:33;;;;;;;2.25;1.95;;;23.10;63.20;;;;;;4995576;28;20250;-69
2023/07/04 09:14:17;;;;;;;3.05;2.00;;;23.10;63.20;;;;;;5011682;28;20184;-69
2023/07/04 09:16:48;;;;;;;2.78;1.98;;;23.10;63.20;;;;;;5020422;28;20215;-69
2023/07/04 09:19:19;;;;;;;2.33;1.85;;;23.10;63.20;;;;;;5044512;28;20188;-71
2023/07/04 09:21:46;;;;;;;4.93;2.53;;;23.10;63.20;;;;;;5019057;28;20302;-69
2023/07/04 09:24:12;;;;;;;2.40;2.20;;;23.10;63.20;;;;;;5015265;28;20183;-69
2023/07/04 09:26:53;;;;;;;2.90;2.40;;;23.10;63.20;;;;;;5039707;28;20270;-69
2023/07/04 09:29:23;;;;;;;2.70;1.98;;;23.10;63.00;;;;;;5012954;28;20262;-70
2023/07/04 09:31:56;;;;;;;3.72;2.38;;;23.10;63.00;;;;;;4995108;28;20207;-69
2023/07/04 09:34:31;;;;;;;2.40;1.95;;;23.10;62.90;;;;;;5019085;28;20195;-69
2023/07/04 09:37:03;;;;;;;2.72;2.28;;;23.10;63.00;;;;;;5012166;28;20242;-69
2023/07/04 09:39:54;;;;;;;2.30;2.10;;;23.10;63.00;;;;;;5016291;28;20195;-69
2023/07/04 09:42:24;;;;;;;2.60;2.20;;;23.10;62.90;;;;;;4994964;28;20188;-70
2023/07/04 09:44:54;;;;;;;2.53;2.33;;;23.10;63.00;;;;;;5011274;28;20553;-69
2023/07/04 09:47:28;;;;;;;4.30;2.28;;;23.10;63.00;;;;;;5003657;28;20194;-69
2023/07/04 09:50:24;;;;;;;2.58;2.20;;;23.10;63.00;;;;;;5011187;28;20300;-70
2023/07/04 09:53:10;;;;;;;2.95;2.60;;;23.10;63.00;;;;;;5016045;28;20200;-70
2023/07/04 09:55:41;;;;;;;2.85;1.98;;;23.10;63.00;;;;;;5005480;28;20687;-69
2023/07/04 09:58:23;;;;;;;3.00;2.40;;;23.10;62.90;;;;;;5009838;28;20291;-71
2023/07/04 10:01:18;;;;;;;2.50;2.25;;;23.10;62.90;;;;;;5019473;28;20298;-69
2023/07/04 10:03:45;;;;;;;2.67;2.33;;;23.10;62.90;;;;;;5039129;28;20222;-71
2023/07/04 10:06:12;;;;;;;2.83;2.40;;;23.10;62.90;;;;;;5026189;28;20310;-70
2023/07/04 10:08:53;;;;;;;2.90;2.47;;;23.10;62.80;;;;;;4994943;28;20223;-71
2023/07/04 10:11:37;;;;;;;2.80;2.28;;;23.10;62.80;;;;;;5014214;28;20273;-70
2023/07/04 10:14:13;;;;;;;2.40;2.20;;;23.10;62.80;;;;;;5013229;28;20222;-70
2023/07/04 10:16:51;;;;;;;2.88;2.38;;;23.10;62.80;;;;;;5021651;28;20227;-70
2023/07/04 10:19:21;;;;;;;2.35;2.15;;;23.10;62.90;;;;;;5010916;28;20581;-70
2023/07/04 10:21:53;;;;;;;4.57;2.55;;;23.10;62.90;;;;;;5030917;28;20235;-71
2023/07/04 10:24:25;;;;;;;4.30;2.70;;;23.10;62.90;;;;;;5060456;28;20180;-71
2023/07/04 10:27:09;;;;;;;2.45;2.15;;;23.10;62.80;;;;;;5028689;28;20230;-70
2023/07/04 10:29:54;;;;;;;3.25;2.58;;;23.10;63.70;;;;;;5011185;28;20188;-70
2023/07/04 10:32:21;;;;;;;3.83;2.30;;;23.10;62.70;;;;;;5010798;28;20195;-67
2023/07/04 10:34:49;;;;;;;4.22;2.53;;;23.10;62.80;;;;;;5010611;28;20358;-70
2023/07/04 10:37:31;;;;;;;4.32;2.75;;;23.10;62.80;;;;;;5010936;28;20282;-70
2023/07/04 10:40:02;;;;;;;2.92;2.55;;;23.10;62.70;;;;;;5010419;28;20184;-69
2023/07/04 10:42:40;;;;;;;2.38;2.15;;;23.10;62.70;;;;;;5010967;28;20191;-70
2023/07/04 10:45:12;;;;;;;2.60;2.40;;;23.10;62.80;;;;;;4994434;28;20275;-70
2023/07/04 10:47:40;;;;;;;2.50;2.30;;;23.10;62.60;;;;;;5011576;28;20190;-69
2023/07/04 10:50:22;;;;;;;2.78;2.40;;;23.10;62.60;;;;;;5015769;28;20208;-69
2023/07/04 10:52:49;;;;;;;3.10;2.60;;;23.10;62.60;;;;;;5014753;28;20192;-69
2023/07/04 10:55:44;;;;;;;2.88;2.55;;;23.10;62.60;;;;;;4998423;28;20585;-69
2023/07/04 10:58:19;;;;;;;3.67;2.78;;;23.10;62.70;;;;;;5014450;28;20191;-69
2023/07/04 11:01:10;;;;;;;3.55;2.50;;;23.10;62.70;;;;;;5014703;28;20207;-69
2023/07/04 11:04:20;;;;;;;2.85;2.60;;;23.10;62.70;;;;;;5009266;28;20759;-68
2023/07/04 11:07:15;;;;;;;2.53;2.20;;;23.10;62.50;;;;;;4998644;28;20566;-68
2023/07/04 11:09:42;;;;;;;2.67;2.47;;;23.10;62.50;;;;;;5014103;28;20192;-69
2023/07/04 11:12:19;;;;;;;2.97;2.63;;;23.10;62.60;;;;;;5014261;28;20272;-68
2023/07/04 11:14:47;;;;;;;3.85;2.53;;;23.10;62.60;;;;;;5013549;28;20705;-69
2023/07/04 11:17:20;;;;;;;2.47;2.17;;;23.10;62.60;;;;;;5013768;28;20188;-69
2023/07/04 11:20:11;;;;;;;3.58;2.45;;;23.10;62.40;;;;;;5013853;28;20194;-68
2023/07/04 11:23:00;;;;;;;2.78;2.40;;;23.10;62.40;;;;;;5016388;28;20184;-68
2023/07/04 11:25:35;;;;;;;3.10;2.70;;;23.10;62.30;;;;;;5010774;28;20176;-69
2023/07/04 11:28:22;;;;;;;2.85;2.55;;;23.10;62.40;;;;;;5035592;28;20266;-69
2023/07/04 11:30:50;;;;;;;3.08;2.17;;;23.10;62.20;;;;;;5014844;28;20214;-68
2023/07/04 11:33:41;;;;;;;2.70;2.50;;;23.20;62.40;;;;;;5013467;28;20176;-68
2023/07/04 11:36:42;;;;;;;2.50;2.30;;;23.10;62.30;;;;;;5013602;28;20207;-69
2023/07/04 11:39:32;;;;;;;2.85;2.03;;;23.10;62.20;;;;;;5012741;28;20246;-68
2023/07/04 11:42:26;;;;;;;3.28;2.65;;;23.10;62.30;;;;;;5013058;28;20212;-68
2023/07/04 11:45:05;;;;;;;2.80;2.30;;;23.10;62.10;;;;;;5014465;28;20203;-68
2023/07/04 11:48:03;;;;;;;2.45;2.25;;;23.10;62.30;;;;;;4992308;28;20215;-69
2023/07/04 11:50:39;;;;;;;3.90;2.55;;;23.10;62.20;;;;;;5021862;28;20208;-68
2023/07/04 11:53:17;;;;;;;3.95;2.92;;;23.10;62.30;;;;;;4996859;28;20682;-68
2023/07/04 11:55:44;;;;;;;2.50;2.20;;;23.10;62.30;;;;;;5026817;28;20239;-66
2023/07/04 11:58:09;;;;;;;3.42;2.38;;;23.10;63.10;;;;;;5004595;28;20627;-68
2023/07/04 12:00:35;;;;;;;2.60;2.40;;;23.10;62.10;;;;;;5019917;28;20203;-68
2023/07/04 12:03:19;;;;;;;3.92;2.45;;;23.10;62.20;;;;;;5013366;28;20191;-67
2023/07/04 12:05:55;;;;;;;2.50;2.30;;;23.10;62.10;;;;;;5005253;28;20200;-68
2023/07/04 12:08:50;;;;;;;2.50;2.30;;;23.10;62.10;;;;;;5021142;28;20191;-68
2023/07/04 12:11:37;;;;;;;3.97;2.70;;;23.10;62.00;;;;;;5015617;28;20277;-66
2023/07/04 12:14:06;;;;;;;2.58;2.35;;;23.10;62.00;;;;;;5007098;28;20215;-68
2023/07/04 12:16:33;;;;;;;2.47;2.28;;;23.10;62.00;;;;;;5026248;28;20235;-69
2023/07/04 12:19:04;;;;;;;3.13;2.20;;;23.10;62.00;;;;;;5021170;28;20660;-68
2023/07/04 12:21:32;;;;;;;2.72;2.30;;;23.10;62.00;;;;;;5012808;28;20287;-69
2023/07/04 12:24:03;;;;;;;2.17;1.98;;;23.10;62.20;;;;;;5012598;28;20223;-68
2023/07/04 12:26:32;;;;;;;2.75;2.20;;;23.10;62.00;;;;;;5025361;28;20229;-68
2023/07/04 12:29:02;;;;;;;3.00;2.40;;;23.10;62.00;;;;;;5016103;28;20283;-69
2023/07/04 12:31:29;;;;;;;2.97;2.25;;;23.10;62.00;;;;;;5019954;28;20265;-69
2023/07/04 12:33:56;;;;;;;2.80;2.50;;;23.10;62.00;;;;;;5013762;28;20184;-66
2023/07/04 12:36:31;;;;;;;2.40;2.10;;;23.10;62.00;;;;;;5013751;28;20241;-69
2023/07/04 12:38:58;;;;;;;3.15;2.30;;;23.10;62.10;;;;;;5020833;28;20186;-68
2023/07/04 12:41:28;;;;;;;2.63;2.17;;;23.10;62.00;;;;;;5011661;28;20208;-68
2023/07/04 12:44:00;;;;;;;2.70;2.50;;;23.10;62.00;;;;;;5020171;28;20655;-66
2023/07/04 12:46:29;;;;;;;2.83;2.20;;;23.10;62.00;;;;;;5030785;28;20184;-69
2023/07/04 12:48:57;;;;;;;2.78;2.58;;;23.10;62.00;;;;;;5053672;28;20198;-67
2023/07/04 12:51:28;;;;;;;2.35;2.10;;;23.10;62.00;;;;;;5004346;28;20204;-67
2023/07/04 12:53:57;;;;;;;2.28;2.08;;;23.10;61.90;;;;;;5020224;28;20675;-67
2023/07/04 12:56:26;;;;;;;2.70;2.20;;;23.10;61.90;;;;;;5015951;28;20253;-68
2023/07/04 12:58:52;;;;;;;2.33;2.05;;;23.20;62.10;;;;;;5024446;28;20192;-68
2023/07/04 13:01:44;;;;;;;2.13;1.92;;;23.20;62.10;;;;;;5020082;28;20716;-68
2023/07/04 13:04:15;;;;;;;2.30;2.10;;;23.20;61.90;;;;;;5002026;28;20247;-68
2023/07/04 13:06:51;;;;;;;2.40;2.17;;;23.20;62.00;;;;;;4999776;28;20278;-69
2023/07/04 13:09:19;;;;;;;2.85;2.05;;;23.20;62.00;;;;;;5011778;28;20187;-69
2023/07/04 13:11:45;;;;;;;2.95;2.40;;;23.20;62.00;;;;;;5011080;28;20204;-67